• Join FlightAware (Why Join?)
  • Login
  • US Flag 
04:32AM EDT


 

Airport Tracker/Info


-or-


 

Live Flight TrackerFlight Track Log ✈ ACA765 ✈ 08-May-2013 ✈ KEWR - CYYZ

Flight Track Log - Related Links

Times and Time Zones

All times are in EDT time to prevent confusion due to time zone crossing. See the ACA765 flight status page for this flight to view local times or setup timezone preferences in your user account.

Time Position Orientation Groundspeed Altitude Reporting Facility
EDT Latitude Longitude Course Direction KTS MPH feet Rate Location/Type
09:24AM 40.7167 -74.1500 300° West 167 192 2,300  Level New York TRACON
09:25AM 40.7667 -74.1500 360° North 240 276 5,000 1,800 Climbing New York TRACON
09:27AM 41.5046 -74.5781 298° West  Level FlightAware Approximate
09:27AM 40.9022 -74.3181 317° Northwest 315 362 8,500  Level New York Center
09:28AM 41.6088 -74.8573 301° West  Level FlightAware Approximate
09:28AM 40.9947 -74.3558 343° North 310 357 11,100  Level New York Center
09:29AM 41.7326 -75.1261 300° West  Level FlightAware Approximate
09:29AM 41.0833 -74.3853 346° North 342 394 13,700  Level New York Center
09:30AM 41.1833 -74.4514 334° Northwest 360 414 16,500 2,340 Climbing New York Center
09:31AM 41.2428 -74.5511 308° West 366 421 18,500 2,100 Climbing New York Center
09:32AM 41.3097 -74.6683 307° West 382 440 20,700 2,040 Climbing New York Center
09:33AM 41.3828 -74.7914 308° West 405 466 22,600 1,920 Climbing New York Center
09:34AM 41.4556 -74.9147 308° West 420 483 24,600 1,260 Climbing New York Center
09:35AM 41.5300 -75.0414 308° West 431 496 25,200 900 Climbing New York Center
09:36AM 41.6067 -75.1708 308° West 431 496 26,500 1,380 Climbing New York Center
09:37AM 41.6806 -75.3036 307° West 436 502 28,000 720 Climbing New York Center
09:38AM 41.7589 -75.4342 309° West 441 507 28,000  Level New York Center
09:39AM 41.8347 -75.5731 306° West 454 522 28,000  Level New York Center
09:40AM 41.9122 -75.7094 307° West 459 528 28,000  Level New York Center
09:41AM 41.9897 -75.8464 307° West 459 528 28,000  Level New York Center
09:43AM 42.1444 -76.1186 308° West 452 520 28,000  Level Cleveland Center
09:44AM 42.2003 -76.2744 296° West 457 526 28,000  Level Cleveland Center
09:45AM 42.2522 -76.4367 293° West 464 534 28,000  Level Cleveland Center
09:46AM 42.3017 -76.5964 293° West 470 541 28,000  Level Cleveland Center
09:47AM 42.3594 -76.7669 295° West 475 547 28,000  Level Cleveland Center
09:48AM 42.4064 -76.9272 292° West 475 547 28,000  Level Cleveland Center
09:49AM 42.4594 -77.0931 293° West 475 547 28,000  Level Cleveland Center
09:50AM 42.5100 -77.2536 293° West 470 541 28,000  Level Cleveland Center
09:51AM 42.5606 -77.4175 293° West 465 535 28,000  Level Cleveland Center
09:52AM 42.6039 -77.5592 293° West 465 535 28,000  Level Cleveland Center
09:53AM 42.6539 -77.7206 293° West 465 535 28,000  Level Cleveland Center
09:54AM 42.7083 -77.9044 292° West 477 549 28,000  Level Cleveland Center
09:55AM 42.7558 -78.0636 292° West 471 542 28,000  Level Cleveland Center
09:56AM 42.8031 -78.2258 292° West 462 532 28,000 -420 Level Cleveland Center
09:57AM 42.8497 -78.3714 294° West 467 537 27,200 -1,380 Descending Cleveland Center
09:58AM 42.9011 -78.5567 291° West 467 537 25,300 -2,100 Descending Cleveland Center
09:59AM 42.9578 -78.7025 298° West 457 526 23,000 -2,280 Descending Cleveland Center
10:02AM 43.1167 -78.9667 310° West 410 472 17,800 -2,220 Descending Toronto Center
10:03AM 43.1667 -79.0833 300° West 390 449 15,800 -2,100 Descending Toronto Center
10:04AM 43.2333 -79.2167 304° West 380 437 13,700 -1,740 Descending Toronto Center
10:05AM 43.2833 -79.3167 305° West 350 403 12,400 -1,080 Descending Toronto Center
10:06AM 43.3667 -79.3500 344° North 320 368 11,600 -1,200 Descending Toronto Center
10:07AM 43.4500 -79.4000 336° Northwest 310 357 10,000 -1,500 Descending Toronto Center
10:08AM 43.5167 -79.4500 331° Northwest 300 345 8,600 -1,200 Descending Toronto Center
10:09AM 43.5667 -79.5167 316° Northwest 260 299 7,700 -1,200 Descending Toronto Center
10:10AM 43.5333 -79.6167 245° Southwest 260 299 6,300 -1,560 Descending Toronto Center
10:11AM 43.5167 -79.6833 251° West 250 288 4,600 -1,500 Descending Toronto Center
10:12AM 43.5333 -79.7667 285° West 230 265 3,300 -900 Descending Toronto Center
10:13AM 43.5833 -79.7667 360° North 200 230 2,900 -660 Descending Toronto Center
10:14AM 43.6167 -79.7333 36° Northeast 180 207 2,000 -900 Descending Toronto Center